sensor_id;sensor_type;location;lat;lon;timestamp;P1;durP1;ratioP1;P2;durP2;ratioP2
36379;SDS011;22411;53.016;18.632;2023-07-31T00:01:47;4.47;;;1.35;;
36379;SDS011;22411;53.016;18.632;2023-07-31T00:04:12;3.10;;;1.60;;
36379;SDS011;22411;53.016;18.632;2023-07-31T00:06:38;3.88;;;2.13;;
36379;SDS011;22411;53.016;18.632;2023-07-31T00:09:04;3.28;;;1.83;;
36379;SDS011;22411;53.016;18.632;2023-07-31T00:11:29;2.72;;;1.60;;
36379;SDS011;22411;53.016;18.632;2023-07-31T00:13:55;4.15;;;2.22;;
36379;SDS011;22411;53.016;18.632;2023-07-31T00:16:21;3.53;;;1.88;;
36379;SDS011;22411;53.016;18.632;2023-07-31T00:18:47;3.28;;;1.95;;
36379;SDS011;22411;53.016;18.632;2023-07-31T00:21:12;6.10;;;2.47;;
36379;SDS011;22411;53.016;18.632;2023-07-31T00:23:38;3.03;;;2.38;;
36379;SDS011;22411;53.016;18.632;2023-07-31T00:26:04;6.05;;;2.17;;
36379;SDS011;22411;53.016;18.632;2023-07-31T00:28:29;2.97;;;2.53;;
36379;SDS011;22411;53.016;18.632;2023-07-31T00:30:55;3.20;;;1.80;;
36379;SDS011;22411;53.016;18.632;2023-07-31T00:33:21;3.70;;;2.58;;
36379;SDS011;22411;53.016;18.632;2023-07-31T00:35:48;2.58;;;1.73;;
36379;SDS011;22411;53.016;18.632;2023-07-31T00:38:13;7.18;;;1.98;;
36379;SDS011;22411;53.016;18.632;2023-07-31T00:40:39;3.63;;;1.90;;
36379;SDS011;22411;53.016;18.632;2023-07-31T00:43:05;4.47;;;2.45;;
36379;SDS011;22411;53.016;18.632;2023-07-31T00:45:31;4.43;;;2.00;;
36379;SDS011;22411;53.016;18.632;2023-07-31T00:47:57;3.50;;;2.00;;
36379;SDS011;22411;53.016;18.632;2023-07-31T00:50:24;3.78;;;1.95;;
36379;SDS011;22411;53.016;18.632;2023-07-31T00:52:50;5.40;;;1.77;;
36379;SDS011;22411;53.016;18.632;2023-07-31T00:55:16;3.75;;;2.13;;
36379;SDS011;22411;53.016;18.632;2023-07-31T00:57:42;5.13;;;1.33;;
36379;SDS011;22411;53.016;18.632;2023-07-31T01:00:08;7.05;;;1.90;;
36379;SDS011;22411;53.016;18.632;2023-07-31T01:02:34;4.13;;;1.52;;
36379;SDS011;22411;53.016;18.632;2023-07-31T01:05:01;3.42;;;1.20;;
36379;SDS011;22411;53.016;18.632;2023-07-31T01:10:21;2.75;;;0.93;;
36379;SDS011;22411;53.016;18.632;2023-07-31T01:12:51;4.40;;;1.40;;
36379;SDS011;22411;53.016;18.632;2023-07-31T01:15:18;2.47;;;1.52;;
36379;SDS011;22411;53.016;18.632;2023-07-31T01:17:44;4.53;;;1.38;;
36379;SDS011;22411;53.016;18.632;2023-07-31T01:20:11;7.40;;;2.03;;
36379;SDS011;22411;53.016;18.632;2023-07-31T01:22:51;2.28;;;1.27;;
36379;SDS011;22411;53.016;18.632;2023-07-31T01:25:45;3.92;;;1.45;;
36379;SDS011;22411;53.016;18.632;2023-07-31T01:28:19;2.15;;;1.08;;
36379;SDS011;22411;53.016;18.632;2023-07-31T01:30:49;3.13;;;1.40;;
36379;SDS011;22411;53.016;18.632;2023-07-31T01:33:16;2.60;;;1.33;;
36379;SDS011;22411;53.016;18.632;2023-07-31T01:35:43;5.75;;;1.75;;
36379;SDS011;22411;53.016;18.632;2023-07-31T01:38:11;3.85;;;1.35;;
36379;SDS011;22411;53.016;18.632;2023-07-31T01:40:37;4.53;;;2.15;;
36379;SDS011;22411;53.016;18.632;2023-07-31T01:43:06;4.05;;;1.95;;
36379;SDS011;22411;53.016;18.632;2023-07-31T01:45:32;4.00;;;1.70;;
36379;SDS011;22411;53.016;18.632;2023-07-31T01:47:57;3.80;;;1.52;;
36379;SDS011;22411;53.016;18.632;2023-07-31T01:50:23;3.05;;;1.40;;
36379;SDS011;22411;53.016;18.632;2023-07-31T01:52:48;2.97;;;1.55;;
36379;SDS011;22411;53.016;18.632;2023-07-31T01:55:14;3.83;;;1.45;;
36379;SDS011;22411;53.016;18.632;2023-07-31T01:57:40;2.92;;;1.58;;
36379;SDS011;22411;53.016;18.632;2023-07-31T02:00:06;2.13;;;1.30;;
36379;SDS011;22411;53.016;18.632;2023-07-31T02:02:32;2.83;;;1.85;;
36379;SDS011;22411;53.016;18.632;2023-07-31T02:04:58;3.17;;;1.67;;
36379;SDS011;22411;53.016;18.632;2023-07-31T02:07:24;3.72;;;2.03;;
36379;SDS011;22411;53.016;18.632;2023-07-31T02:09:49;1.70;;;1.35;;
36379;SDS011;22411;53.016;18.632;2023-07-31T02:12:15;6.75;;;1.95;;
36379;SDS011;22411;53.016;18.632;2023-07-31T02:14:41;3.17;;;1.52;;
36379;SDS011;22411;53.016;18.632;2023-07-31T02:17:06;2.70;;;1.48;;
36379;SDS011;22411;53.016;18.632;2023-07-31T02:19:32;4.18;;;2.13;;
36379;SDS011;22411;53.016;18.632;2023-07-31T02:21:57;4.00;;;1.75;;
36379;SDS011;22411;53.016;18.632;2023-07-31T02:24:24;3.45;;;1.92;;
36379;SDS011;22411;53.016;18.632;2023-07-31T02:26:49;6.13;;;1.60;;
36379;SDS011;22411;53.016;18.632;2023-07-31T02:29:15;4.30;;;1.67;;
36379;SDS011;22411;53.016;18.632;2023-07-31T02:31:40;5.28;;;1.77;;
36379;SDS011;22411;53.016;18.632;2023-07-31T02:34:06;5.43;;;2.33;;
36379;SDS011;22411;53.016;18.632;2023-07-31T02:36:32;3.13;;;1.65;;
36379;SDS011;22411;53.016;18.632;2023-07-31T02:38:58;3.10;;;2.22;;
36379;SDS011;22411;53.016;18.632;2023-07-31T02:41:23;4.63;;;1.95;;
36379;SDS011;22411;53.016;18.632;2023-07-31T02:43:49;4.93;;;1.35;;
36379;SDS011;22411;53.016;18.632;2023-07-31T02:46:15;4.40;;;2.42;;
36379;SDS011;22411;53.016;18.632;2023-07-31T02:48:40;4.15;;;1.77;;
36379;SDS011;22411;53.016;18.632;2023-07-31T02:51:06;6.20;;;2.47;;
36379;SDS011;22411;53.016;18.632;2023-07-31T02:53:32;6.63;;;2.15;;
36379;SDS011;22411;53.016;18.632;2023-07-31T02:55:57;4.15;;;1.63;;
36379;SDS011;22411;53.016;18.632;2023-07-31T02:58:23;2.97;;;1.52;;
36379;SDS011;22411;53.016;18.632;2023-07-31T03:00:48;4.05;;;1.83;;
36379;SDS011;22411;53.016;18.632;2023-07-31T03:03:14;6.50;;;2.42;;
36379;SDS011;22411;53.016;18.632;2023-07-31T03:05:40;5.55;;;2.40;;
36379;SDS011;22411;53.016;18.632;2023-07-31T03:08:05;4.80;;;2.33;;
36379;SDS011;22411;53.016;18.632;2023-07-31T03:10:31;4.03;;;1.90;;
36379;SDS011;22411;53.016;18.632;2023-07-31T03:12:57;3.35;;;2.17;;
36379;SDS011;22411;53.016;18.632;2023-07-31T03:15:22;5.97;;;2.00;;
36379;SDS011;22411;53.016;18.632;2023-07-31T03:17:48;3.13;;;1.95;;
36379;SDS011;22411;53.016;18.632;2023-07-31T03:20:14;6.30;;;2.58;;
36379;SDS011;22411;53.016;18.632;2023-07-31T03:22:39;3.80;;;2.15;;
36379;SDS011;22411;53.016;18.632;2023-07-31T03:25:05;4.28;;;2.35;;
36379;SDS011;22411;53.016;18.632;2023-07-31T03:27:31;2.65;;;2.25;;
36379;SDS011;22411;53.016;18.632;2023-07-31T03:29:57;6.30;;;2.08;;
36379;SDS011;22411;53.016;18.632;2023-07-31T03:32:22;4.40;;;2.22;;
36379;SDS011;22411;53.016;18.632;2023-07-31T03:34:49;3.60;;;1.77;;
36379;SDS011;22411;53.016;18.632;2023-07-31T03:37:15;3.42;;;2.17;;
36379;SDS011;22411;53.016;18.632;2023-07-31T03:39:40;4.97;;;1.73;;
36379;SDS011;22411;53.016;18.632;2023-07-31T03:42:06;4.50;;;2.60;;
36379;SDS011;22411;53.016;18.632;2023-07-31T03:44:31;5.40;;;2.45;;
36379;SDS011;22411;53.016;18.632;2023-07-31T03:46:57;5.05;;;2.38;;
36379;SDS011;22411;53.016;18.632;2023-07-31T03:49:23;5.70;;;2.35;;
36379;SDS011;22411;53.016;18.632;2023-07-31T03:51:49;4.45;;;1.95;;
36379;SDS011;22411;53.016;18.632;2023-07-31T03:54:15;4.13;;;1.92;;
36379;SDS011;22411;53.016;18.632;2023-07-31T03:56:40;3.40;;;2.05;;
36379;SDS011;22411;53.016;18.632;2023-07-31T03:59:06;5.40;;;2.50;;
36379;SDS011;22411;53.016;18.632;2023-07-31T04:01:32;4.05;;;2.05;;
36379;SDS011;22411;53.016;18.632;2023-07-31T04:03:57;2.85;;;2.50;;
36379;SDS011;22411;53.016;18.632;2023-07-31T04:06:23;4.18;;;2.03;;
36379;SDS011;22411;53.016;18.632;2023-07-31T04:08:48;3.05;;;2.00;;
36379;SDS011;22411;53.016;18.632;2023-07-31T04:11:14;11.27;;;2.55;;
36379;SDS011;22411;53.016;18.632;2023-07-31T04:13:40;4.53;;;2.08;;
36379;SDS011;22411;53.016;18.632;2023-07-31T04:16:06;5.57;;;1.95;;
36379;SDS011;22411;53.016;18.632;2023-07-31T04:18:31;3.67;;;1.80;;
36379;SDS011;22411;53.016;18.632;2023-07-31T04:20:57;2.60;;;1.85;;
36379;SDS011;22411;53.016;18.632;2023-07-31T04:23:26;3.67;;;1.95;;
36379;SDS011;22411;53.016;18.632;2023-07-31T04:25:52;2.95;;;1.70;;
36379;SDS011;22411;53.016;18.632;2023-07-31T04:28:18;15.27;;;2.88;;
36379;SDS011;22411;53.016;18.632;2023-07-31T04:30:43;5.57;;;1.85;;
36379;SDS011;22411;53.016;18.632;2023-07-31T04:33:09;4.57;;;2.10;;
36379;SDS011;22411;53.016;18.632;2023-07-31T04:35:35;4.00;;;1.80;;
36379;SDS011;22411;53.016;18.632;2023-07-31T04:38:00;3.13;;;1.63;;
36379;SDS011;22411;53.016;18.632;2023-07-31T04:40:26;3.78;;;2.03;;
36379;SDS011;22411;53.016;18.632;2023-07-31T04:42:52;3.85;;;1.60;;
36379;SDS011;22411;53.016;18.632;2023-07-31T04:45:18;4.10;;;1.92;;
36379;SDS011;22411;53.016;18.632;2023-07-31T04:47:43;3.63;;;2.08;;
36379;SDS011;22411;53.016;18.632;2023-07-31T04:50:09;3.75;;;1.48;;
36379;SDS011;22411;53.016;18.632;2023-07-31T04:52:35;3.55;;;1.88;;
36379;SDS011;22411;53.016;18.632;2023-07-31T04:55:01;2.53;;;1.80;;
36379;SDS011;22411;53.016;18.632;2023-07-31T04:57:27;3.25;;;1.95;;
36379;SDS011;22411;53.016;18.632;2023-07-31T04:59:52;4.40;;;1.98;;
36379;SDS011;22411;53.016;18.632;2023-07-31T05:02:18;4.43;;;1.50;;
36379;SDS011;22411;53.016;18.632;2023-07-31T05:04:44;3.47;;;1.73;;
36379;SDS011;22411;53.016;18.632;2023-07-31T05:07:09;4.57;;;1.95;;
36379;SDS011;22411;53.016;18.632;2023-07-31T05:09:35;4.25;;;1.38;;
36379;SDS011;22411;53.016;18.632;2023-07-31T05:12:01;2.90;;;1.35;;
36379;SDS011;22411;53.016;18.632;2023-07-31T05:14:27;3.08;;;1.88;;
36379;SDS011;22411;53.016;18.632;2023-07-31T05:16:52;4.25;;;1.55;;
36379;SDS011;22411;53.016;18.632;2023-07-31T05:19:18;3.55;;;1.50;;
36379;SDS011;22411;53.016;18.632;2023-07-31T05:21:43;3.42;;;1.45;;
36379;SDS011;22411;53.016;18.632;2023-07-31T05:24:10;4.22;;;1.83;;
36379;SDS011;22411;53.016;18.632;2023-07-31T05:26:35;2.53;;;1.58;;
36379;SDS011;22411;53.016;18.632;2023-07-31T05:29:01;4.50;;;1.65;;
36379;SDS011;22411;53.016;18.632;2023-07-31T05:31:27;4.78;;;2.00;;
36379;SDS011;22411;53.016;18.632;2023-07-31T05:33:53;5.10;;;2.05;;
36379;SDS011;22411;53.016;18.632;2023-07-31T05:36:19;10.27;;;2.08;;
36379;SDS011;22411;53.016;18.632;2023-07-31T05:38:44;5.43;;;2.03;;
36379;SDS011;22411;53.016;18.632;2023-07-31T05:41:13;2.88;;;1.75;;
36379;SDS011;22411;53.016;18.632;2023-07-31T05:43:39;3.50;;;2.13;;
36379;SDS011;22411;53.016;18.632;2023-07-31T05:46:04;3.40;;;1.65;;
36379;SDS011;22411;53.016;18.632;2023-07-31T05:48:32;4.78;;;1.15;;
36379;SDS011;22411;53.016;18.632;2023-07-31T05:50:59;2.40;;;1.33;;
36379;SDS011;22411;53.016;18.632;2023-07-31T05:53:25;4.78;;;1.90;;
36379;SDS011;22411;53.016;18.632;2023-07-31T05:55:51;4.00;;;1.33;;
36379;SDS011;22411;53.016;18.632;2023-07-31T05:58:16;4.78;;;1.52;;
36379;SDS011;22411;53.016;18.632;2023-07-31T06:00:42;3.00;;;1.50;;
36379;SDS011;22411;53.016;18.632;2023-07-31T06:03:08;4.35;;;1.42;;
36379;SDS011;22411;53.016;18.632;2023-07-31T06:05:33;2.17;;;1.08;;
36379;SDS011;22411;53.016;18.632;2023-07-31T06:08:00;3.22;;;1.77;;
36379;SDS011;22411;53.016;18.632;2023-07-31T06:10:26;2.35;;;1.27;;
36379;SDS011;22411;53.016;18.632;2023-07-31T06:12:52;4.45;;;1.70;;
36379;SDS011;22411;53.016;18.632;2023-07-31T06:15:18;6.22;;;1.27;;
36379;SDS011;22411;53.016;18.632;2023-07-31T06:17:44;5.50;;;1.13;;
36379;SDS011;22411;53.016;18.632;2023-07-31T06:20:10;3.67;;;1.25;;
36379;SDS011;22411;53.016;18.632;2023-07-31T06:22:36;2.60;;;0.98;;
36379;SDS011;22411;53.016;18.632;2023-07-31T06:25:01;3.90;;;1.50;;
36379;SDS011;22411;53.016;18.632;2023-07-31T06:27:27;3.33;;;1.20;;
36379;SDS011;22411;53.016;18.632;2023-07-31T06:29:53;3.95;;;1.48;;
36379;SDS011;22411;53.016;18.632;2023-07-31T06:32:19;4.93;;;0.90;;
36379;SDS011;22411;53.016;18.632;2023-07-31T06:34:44;3.65;;;1.27;;
36379;SDS011;22411;53.016;18.632;2023-07-31T06:37:10;3.85;;;1.48;;
36379;SDS011;22411;53.016;18.632;2023-07-31T06:39:36;5.28;;;1.15;;
36379;SDS011;22411;53.016;18.632;2023-07-31T06:42:03;5.78;;;1.95;;
36379;SDS011;22411;53.016;18.632;2023-07-31T06:44:29;4.97;;;1.50;;
36379;SDS011;22411;53.016;18.632;2023-07-31T06:46:55;3.85;;;1.17;;
36379;SDS011;22411;53.016;18.632;2023-07-31T06:49:20;3.75;;;1.00;;
36379;SDS011;22411;53.016;18.632;2023-07-31T06:51:46;5.47;;;1.35;;
36379;SDS011;22411;53.016;18.632;2023-07-31T06:54:12;7.32;;;1.45;;
36379;SDS011;22411;53.016;18.632;2023-07-31T06:56:38;2.88;;;0.93;;
36379;SDS011;22411;53.016;18.632;2023-07-31T06:59:03;2.70;;;0.82;;
36379;SDS011;22411;53.016;18.632;2023-07-31T07:01:29;4.57;;;1.33;;
36379;SDS011;22411;53.016;18.632;2023-07-31T07:03:54;2.22;;;0.70;;
36379;SDS011;22411;53.016;18.632;2023-07-31T07:06:21;2.47;;;0.80;;
36379;SDS011;22411;53.016;18.632;2023-07-31T07:08:47;5.30;;;0.80;;
36379;SDS011;22411;53.016;18.632;2023-07-31T07:11:14;3.50;;;0.82;;
36379;SDS011;22411;53.016;18.632;2023-07-31T07:13:40;2.58;;;0.63;;
36379;SDS011;22411;53.016;18.632;2023-07-31T07:16:06;3.58;;;1.10;;
36379;SDS011;22411;53.016;18.632;2023-07-31T07:18:32;6.63;;;1.40;;
36379;SDS011;22411;53.016;18.632;2023-07-31T07:20:57;4.05;;;0.80;;
36379;SDS011;22411;53.016;18.632;2023-07-31T07:23:23;1.88;;;0.60;;
36379;SDS011;22411;53.016;18.632;2023-07-31T07:25:49;2.75;;;0.50;;
36379;SDS011;22411;53.016;18.632;2023-07-31T07:28:15;7.28;;;0.90;;
36379;SDS011;22411;53.016;18.632;2023-07-31T07:30:41;3.97;;;0.55;;
36379;SDS011;22411;53.016;18.632;2023-07-31T07:33:06;1.95;;;0.50;;
36379;SDS011;22411;53.016;18.632;2023-07-31T07:35:35;2.55;;;0.73;;
36379;SDS011;22411;53.016;18.632;2023-07-31T07:38:02;2.53;;;0.40;;
36379;SDS011;22411;53.016;18.632;2023-07-31T07:40:28;1.80;;;0.40;;
36379;SDS011;22411;53.016;18.632;2023-07-31T07:42:54;3.60;;;0.60;;
36379;SDS011;22411;53.016;18.632;2023-07-31T07:45:19;2.00;;;0.47;;
36379;SDS011;22411;53.016;18.632;2023-07-31T07:47:45;1.80;;;0.40;;
36379;SDS011;22411;53.016;18.632;2023-07-31T07:50:11;2.05;;;0.35;;
36379;SDS011;22411;53.016;18.632;2023-07-31T07:52:37;1.42;;;0.45;;
36379;SDS011;22411;53.016;18.632;2023-07-31T07:55:03;2.20;;;0.30;;
36379;SDS011;22411;53.016;18.632;2023-07-31T07:57:29;1.63;;;0.40;;
36379;SDS011;22411;53.016;18.632;2023-07-31T07:59:55;2.90;;;0.30;;
36379;SDS011;22411;53.016;18.632;2023-07-31T08:02:21;3.03;;;0.40;;
36379;SDS011;22411;53.016;18.632;2023-07-31T08:04:48;1.92;;;0.40;;
36379;SDS011;22411;53.016;18.632;2023-07-31T08:07:13;3.28;;;0.40;;
36379;SDS011;22411;53.016;18.632;2023-07-31T08:09:39;2.53;;;0.55;;
36379;SDS011;22411;53.016;18.632;2023-07-31T08:12:06;2.20;;;0.30;;
36379;SDS011;22411;53.016;18.632;2023-07-31T08:14:32;3.92;;;0.40;;
36379;SDS011;22411;53.016;18.632;2023-07-31T08:16:58;2.22;;;0.73;;
36379;SDS011;22411;53.016;18.632;2023-07-31T08:19:24;2.88;;;0.30;;
36379;SDS011;22411;53.016;18.632;2023-07-31T08:21:49;2.10;;;0.30;;
36379;SDS011;22411;53.016;18.632;2023-07-31T08:24:15;2.15;;;0.50;;
36379;SDS011;22411;53.016;18.632;2023-07-31T08:26:41;2.17;;;0.38;;
36379;SDS011;22411;53.016;18.632;2023-07-31T08:29:07;2.22;;;0.55;;
36379;SDS011;22411;53.016;18.632;2023-07-31T08:31:32;4.13;;;0.65;;
36379;SDS011;22411;53.016;18.632;2023-07-31T08:33:59;2.70;;;0.50;;
36379;SDS011;22411;53.016;18.632;2023-07-31T08:36:24;2.67;;;0.40;;
36379;SDS011;22411;53.016;18.632;2023-07-31T08:38:50;1.98;;;0.28;;
36379;SDS011;22411;53.016;18.632;2023-07-31T08:41:16;1.88;;;0.45;;
36379;SDS011;22411;53.016;18.632;2023-07-31T08:43:48;2.78;;;0.55;;
36379;SDS011;22411;53.016;18.632;2023-07-31T08:46:15;1.60;;;0.20;;
36379;SDS011;22411;53.016;18.632;2023-07-31T08:48:43;2.63;;;0.50;;
36379;SDS011;22411;53.016;18.632;2023-07-31T08:51:10;2.58;;;0.30;;
36379;SDS011;22411;53.016;18.632;2023-07-31T08:53:36;1.63;;;0.40;;
36379;SDS011;22411;53.016;18.632;2023-07-31T08:56:02;1.38;;;0.40;;
36379;SDS011;22411;53.016;18.632;2023-07-31T08:58:29;2.83;;;0.65;;
36379;SDS011;22411;53.016;18.632;2023-07-31T09:00:57;1.60;;;0.20;;
36379;SDS011;22411;53.016;18.632;2023-07-31T09:03:26;2.72;;;0.40;;
36379;SDS011;22411;53.016;18.632;2023-07-31T09:05:52;4.32;;;0.50;;
36379;SDS011;22411;53.016;18.632;2023-07-31T09:08:21;4.20;;;0.40;;
36379;SDS011;22411;53.016;18.632;2023-07-31T09:10:47;4.85;;;0.30;;
36379;SDS011;22411;53.016;18.632;2023-07-31T09:13:15;1.63;;;0.40;;
36379;SDS011;22411;53.016;18.632;2023-07-31T09:15:42;5.00;;;0.60;;
36379;SDS011;22411;53.016;18.632;2023-07-31T09:18:09;3.65;;;0.40;;
36379;SDS011;22411;53.016;18.632;2023-07-31T09:20:35;4.45;;;0.52;;
36379;SDS011;22411;53.016;18.632;2023-07-31T09:23:08;2.47;;;0.32;;
36379;SDS011;22411;53.016;18.632;2023-07-31T09:25:39;3.35;;;0.32;;
36379;SDS011;22411;53.016;18.632;2023-07-31T09:28:06;5.38;;;0.50;;
36379;SDS011;22411;53.016;18.632;2023-07-31T09:30:43;3.10;;;0.95;;
36379;SDS011;22411;53.016;18.632;2023-07-31T09:33:16;3.58;;;0.38;;
36379;SDS011;22411;53.016;18.632;2023-07-31T09:35:43;4.45;;;0.65;;
36379;SDS011;22411;53.016;18.632;2023-07-31T09:38:10;3.05;;;0.55;;
36379;SDS011;22411;53.016;18.632;2023-07-31T09:40:38;2.33;;;0.45;;
36379;SDS011;22411;53.016;18.632;2023-07-31T09:43:07;1.83;;;0.32;;
36379;SDS011;22411;53.016;18.632;2023-07-31T09:45:35;2.22;;;0.70;;
36379;SDS011;22411;53.016;18.632;2023-07-31T09:48:12;3.25;;;0.60;;
36379;SDS011;22411;53.016;18.632;2023-07-31T09:50:42;3.10;;;0.50;;
36379;SDS011;22411;53.016;18.632;2023-07-31T09:53:10;2.50;;;0.70;;
36379;SDS011;22411;53.016;18.632;2023-07-31T09:55:36;3.45;;;0.50;;
36379;SDS011;22411;53.016;18.632;2023-07-31T09:58:03;3.03;;;0.80;;
36379;SDS011;22411;53.016;18.632;2023-07-31T10:00:30;2.60;;;0.63;;
36379;SDS011;22411;53.016;18.632;2023-07-31T10:03:01;3.97;;;0.80;;
36379;SDS011;22411;53.016;18.632;2023-07-31T10:05:34;2.58;;;0.70;;
36379;SDS011;22411;53.016;18.632;2023-07-31T10:08:01;3.00;;;0.73;;
36379;SDS011;22411;53.016;18.632;2023-07-31T10:10:27;2.88;;;0.63;;
36379;SDS011;22411;53.016;18.632;2023-07-31T10:12:53;3.75;;;0.60;;
36379;SDS011;22411;53.016;18.632;2023-07-31T10:15:21;2.78;;;0.57;;
36379;SDS011;22411;53.016;18.632;2023-07-31T10:17:47;2.03;;;0.60;;
36379;SDS011;22411;53.016;18.632;2023-07-31T10:20:14;3.30;;;0.73;;
36379;SDS011;22411;53.016;18.632;2023-07-31T10:22:42;2.47;;;0.70;;
36379;SDS011;22411;53.016;18.632;2023-07-31T10:25:09;6.13;;;1.05;;
36379;SDS011;22411;53.016;18.632;2023-07-31T10:27:35;3.30;;;0.55;;
36379;SDS011;22411;53.016;18.632;2023-07-31T10:30:03;2.58;;;0.88;;
36379;SDS011;22411;53.016;18.632;2023-07-31T10:32:31;2.03;;;0.52;;
36379;SDS011;22411;53.016;18.632;2023-07-31T10:34:57;1.55;;;0.50;;
36379;SDS011;22411;53.016;18.632;2023-07-31T10:37:24;4.70;;;0.60;;
36379;SDS011;22411;53.016;18.632;2023-07-31T10:39:58;3.65;;;0.85;;
36379;SDS011;22411;53.016;18.632;2023-07-31T10:45:02;3.63;;;0.70;;
36379;SDS011;22411;53.016;18.632;2023-07-31T10:47:38;2.35;;;1.02;;
36379;SDS011;22411;53.016;18.632;2023-07-31T10:50:21;4.57;;;1.70;;
36379;SDS011;22411;53.016;18.632;2023-07-31T10:52:50;6.63;;;1.55;;
36379;SDS011;22411;53.016;18.632;2023-07-31T11:00:32;4.72;;;1.40;;
36379;SDS011;22411;53.016;18.632;2023-07-31T11:03:59;4.55;;;1.55;;
36379;SDS011;22411;53.016;18.632;2023-07-31T11:06:13;4.30;;;1.85;;
36379;SDS011;22411;53.016;18.632;2023-07-31T11:08:43;5.90;;;2.17;;
36379;SDS011;22411;53.016;18.632;2023-07-31T11:11:11;4.97;;;1.92;;
36379;SDS011;22411;53.016;18.632;2023-07-31T11:13:40;5.95;;;2.30;;
36379;SDS011;22411;53.016;18.632;2023-07-31T11:16:06;3.15;;;1.92;;
36379;SDS011;22411;53.016;18.632;2023-07-31T11:18:33;8.98;;;1.90;;
36379;SDS011;22411;53.016;18.632;2023-07-31T11:20:58;13.63;;;2.85;;
36379;SDS011;22411;53.016;18.632;2023-07-31T11:23:24;4.95;;;1.92;;
36379;SDS011;22411;53.016;18.632;2023-07-31T11:25:50;3.05;;;1.90;;
36379;SDS011;22411;53.016;18.632;2023-07-31T11:28:16;4.05;;;2.03;;
36379;SDS011;22411;53.016;18.632;2023-07-31T11:30:43;3.10;;;1.52;;
36379;SDS011;22411;53.016;18.632;2023-07-31T11:33:12;2.50;;;1.40;;
36379;SDS011;22411;53.016;18.632;2023-07-31T11:35:46;4.93;;;1.45;;
36379;SDS011;22411;53.016;18.632;2023-07-31T11:38:21;4.55;;;1.30;;
36379;SDS011;22411;53.016;18.632;2023-07-31T11:40:50;5.47;;;1.13;;
36379;SDS011;22411;53.016;18.632;2023-07-31T11:43:17;2.67;;;1.23;;
36379;SDS011;22411;53.016;18.632;2023-07-31T11:45:50;3.33;;;1.20;;
36379;SDS011;22411;53.016;18.632;2023-07-31T11:48:27;2.97;;;1.08;;
36379;SDS011;22411;53.016;18.632;2023-07-31T11:50:57;3.92;;;1.20;;
36379;SDS011;22411;53.016;18.632;2023-07-31T11:53:25;2.85;;;0.80;;
36379;SDS011;22411;53.016;18.632;2023-07-31T11:55:55;2.22;;;0.70;;
36379;SDS011;22411;53.016;18.632;2023-07-31T11:58:25;3.42;;;0.80;;
36379;SDS011;22411;53.016;18.632;2023-07-31T12:00:51;3.15;;;0.80;;
36379;SDS011;22411;53.016;18.632;2023-07-31T12:03:18;3.20;;;0.80;;
36379;SDS011;22411;53.016;18.632;2023-07-31T12:05:44;1.10;;;0.30;;
36379;SDS011;22411;53.016;18.632;2023-07-31T12:08:10;3.97;;;0.52;;
36379;SDS011;22411;53.016;18.632;2023-07-31T12:10:37;4.35;;;0.52;;
36379;SDS011;22411;53.016;18.632;2023-07-31T12:13:10;3.90;;;0.50;;
36379;SDS011;22411;53.016;18.632;2023-07-31T12:15:43;2.63;;;0.60;;
36379;SDS011;22411;53.016;18.632;2023-07-31T12:18:10;2.78;;;0.70;;
36379;SDS011;22411;53.016;18.632;2023-07-31T12:20:40;5.78;;;0.88;;
36379;SDS011;22411;53.016;18.632;2023-07-31T12:23:17;1.83;;;0.40;;
36379;SDS011;22411;53.016;18.632;2023-07-31T12:28:42;3.10;;;0.45;;
36379;SDS011;22411;53.016;18.632;2023-07-31T12:31:15;5.00;;;0.60;;
36379;SDS011;22411;53.016;18.632;2023-07-31T12:33:46;2.22;;;0.40;;
36379;SDS011;22411;53.016;18.632;2023-07-31T12:36:15;2.28;;;0.63;;
36379;SDS011;22411;53.016;18.632;2023-07-31T12:38:43;1.17;;;0.50;;
36379;SDS011;22411;53.016;18.632;2023-07-31T12:41:09;4.35;;;0.82;;
36379;SDS011;22411;53.016;18.632;2023-07-31T12:43:35;2.30;;;0.60;;
36379;SDS011;22411;53.016;18.632;2023-07-31T12:46:06;2.75;;;0.75;;
36379;SDS011;22411;53.016;18.632;2023-07-31T12:48:33;3.92;;;1.40;;
36379;SDS011;22411;53.016;18.632;2023-07-31T12:50:59;2.15;;;0.95;;
36379;SDS011;22411;53.016;18.632;2023-07-31T12:53:26;2.80;;;0.98;;
36379;SDS011;22411;53.016;18.632;2023-07-31T12:55:51;2.55;;;1.15;;
36379;SDS011;22411;53.016;18.632;2023-07-31T12:58:17;2.75;;;0.75;;
36379;SDS011;22411;53.016;18.632;2023-07-31T13:00:43;3.65;;;0.85;;
36379;SDS011;22411;53.016;18.632;2023-07-31T13:03:08;4.57;;;0.80;;
36379;SDS011;22411;53.016;18.632;2023-07-31T13:05:34;3.50;;;0.98;;
36379;SDS011;22411;53.016;18.632;2023-07-31T13:08:00;2.70;;;0.82;;
36379;SDS011;22411;53.016;18.632;2023-07-31T13:10:26;3.35;;;0.70;;
36379;SDS011;22411;53.016;18.632;2023-07-31T13:12:54;6.18;;;1.42;;
36379;SDS011;22411;53.016;18.632;2023-07-31T13:15:20;2.88;;;1.30;;
36379;SDS011;22411;53.016;18.632;2023-07-31T13:17:46;2.78;;;1.25;;
36379;SDS011;22411;53.016;18.632;2023-07-31T13:20:12;3.55;;;0.75;;
36379;SDS011;22411;53.016;18.632;2023-07-31T13:22:38;2.97;;;0.80;;
36379;SDS011;22411;53.016;18.632;2023-07-31T13:25:03;3.33;;;0.90;;
36379;SDS011;22411;53.016;18.632;2023-07-31T13:27:30;2.13;;;0.82;;
36379;SDS011;22411;53.016;18.632;2023-07-31T13:29:56;2.10;;;0.70;;
36379;SDS011;22411;53.016;18.632;2023-07-31T13:32:22;2.72;;;0.65;;
36379;SDS011;22411;53.016;18.632;2023-07-31T13:34:47;3.25;;;0.60;;
36379;SDS011;22411;53.016;18.632;2023-07-31T13:37:14;1.52;;;0.82;;
36379;SDS011;22411;53.016;18.632;2023-07-31T13:39:40;5.15;;;0.68;;
36379;SDS011;22411;53.016;18.632;2023-07-31T13:42:07;1.63;;;0.50;;
36379;SDS011;22411;53.016;18.632;2023-07-31T13:44:37;1.02;;;0.40;;
36379;SDS011;22411;53.016;18.632;2023-07-31T13:47:03;2.17;;;0.70;;
36379;SDS011;22411;53.016;18.632;2023-07-31T13:49:29;1.80;;;0.65;;
36379;SDS011;22411;53.016;18.632;2023-07-31T13:51:55;3.45;;;0.40;;
36379;SDS011;22411;53.016;18.632;2023-07-31T13:54:24;2.30;;;0.40;;
36379;SDS011;22411;53.016;18.632;2023-07-31T13:56:51;2.53;;;0.50;;
36379;SDS011;22411;53.016;18.632;2023-07-31T13:59:17;3.95;;;0.38;;
36379;SDS011;22411;53.016;18.632;2023-07-31T14:01:43;3.15;;;1.08;;
36379;SDS011;22411;53.016;18.632;2023-07-31T14:04:09;2.60;;;0.90;;
36379;SDS011;22411;53.016;18.632;2023-07-31T14:06:35;4.68;;;0.57;;
36379;SDS011;22411;53.016;18.632;2023-07-31T14:09:01;2.63;;;0.60;;
36379;SDS011;22411;53.016;18.632;2023-07-31T14:11:28;2.97;;;0.63;;
36379;SDS011;22411;53.016;18.632;2023-07-31T14:13:54;1.88;;;0.40;;
36379;SDS011;22411;53.016;18.632;2023-07-31T14:16:21;0.93;;;0.47;;
36379;SDS011;22411;53.016;18.632;2023-07-31T14:18:47;1.70;;;0.50;;
36379;SDS011;22411;53.016;18.632;2023-07-31T14:21:13;7.28;;;0.40;;
36379;SDS011;22411;53.016;18.632;2023-07-31T14:23:39;2.97;;;0.40;;
36379;SDS011;22411;53.016;18.632;2023-07-31T14:26:05;1.10;;;0.40;;
36379;SDS011;22411;53.016;18.632;2023-07-31T14:28:31;1.27;;;0.30;;
36379;SDS011;22411;53.016;18.632;2023-07-31T14:30:56;2.13;;;0.65;;
36379;SDS011;22411;53.016;18.632;2023-07-31T14:33:22;3.13;;;0.50;;
36379;SDS011;22411;53.016;18.632;2023-07-31T14:35:49;2.13;;;0.50;;
36379;SDS011;22411;53.016;18.632;2023-07-31T14:38:14;1.30;;;0.40;;
36379;SDS011;22411;53.016;18.632;2023-07-31T14:40:40;1.95;;;0.60;;
36379;SDS011;22411;53.016;18.632;2023-07-31T14:43:06;1.38;;;0.50;;
36379;SDS011;22411;53.016;18.632;2023-07-31T14:45:32;0.85;;;0.32;;